Time;durP1;ratioP1;P1;durP2;ratioP2;P2;SDS_P1;SDS_P2;PMS_P1;PMS_P2;Temp;Humidity;BMP_temperature;BMP_pressure;BME280_temperature;BME280_humidity;BME280_pressure;Samples;Min_cycle;Max_cycle;Signal;HPM_P1;HPM_P2
2022/12/10 00:02:14;;;;;;;19.42;12.10;;;3.10;75.90;;;;;;5076972;28;20033;-79
2022/12/10 00:04:39;;;;;;;19.20;12.35;;;3.10;76.00;;;;;;5059217;28;20105;-80
2022/12/10 00:07:05;;;;;;;18.23;12.13;;;3.10;76.00;;;;;;5077061;28;20106;-80
2022/12/10 00:09:31;;;;;;;19.67;12.13;;;3.10;75.90;;;;;;5075899;28;20049;-79
2022/12/10 00:11:57;;;;;;;19.42;12.48;;;3.10;75.90;;;;;;5042933;28;20165;-79
2022/12/10 00:14:22;;;;;;;19.45;13.10;;;3.00;75.90;;;;;;5042318;28;20032;-79
2022/12/10 00:16:48;;;;;;;17.58;12.18;;;3.00;75.90;;;;;;5076633;28;20028;-79
2022/12/10 00:19:14;;;;;;;17.75;12.30;;;3.00;75.90;;;;;;5058814;28;20041;-80
2022/12/10 00:21:40;;;;;;;17.02;10.93;;;3.00;75.90;;;;;;5075295;28;20033;-79
2022/12/10 00:24:06;;;;;;;18.50;12.40;;;3.00;75.90;;;;;;5042254;28;20488;-79
2022/12/10 00:26:37;;;;;;;18.13;12.40;;;3.00;75.90;;;;;;5076079;28;20469;-79
2022/12/10 00:29:04;;;;;;;19.42;12.45;;;3.00;75.90;;;;;;5074683;28;20036;-80
2022/12/10 00:31:33;;;;;;;18.75;11.63;;;3.00;75.90;;;;;;5058427;28;20060;-80
2022/12/10 00:34:02;;;;;;;18.15;12.65;;;3.00;75.90;;;;;;5075138;28;20020;-78
2022/12/10 00:36:32;;;;;;;18.60;12.40;;;2.90;75.90;;;;;;5058174;28;20029;-79
2022/12/10 00:38:58;;;;;;;21.45;13.35;;;2.90;75.90;;;;;;5074957;28;20033;-79
2022/12/10 00:41:27;;;;;;;20.17;13.30;;;2.90;75.90;;;;;;5058778;28;20074;-79
2022/12/10 00:43:53;;;;;;;18.15;12.85;;;2.90;75.90;;;;;;5058103;28;20135;-79
2022/12/10 00:46:19;;;;;;;18.52;11.68;;;2.90;75.90;;;;;;5058146;28;20131;-81
2022/12/10 00:48:46;;;;;;;20.20;12.98;;;2.90;75.90;;;;;;5076031;28;20082;-80
2022/12/10 00:51:23;;;;;;;19.45;13.20;;;2.90;75.90;;;;;;5075837;28;20108;-79
2022/12/10 00:53:51;;;;;;;20.60;14.27;;;2.90;75.90;;;;;;5075972;28;20025;-79
2022/12/10 00:56:20;;;;;;;18.52;12.25;;;2.90;75.90;;;;;;5074495;28;20052;-80
2022/12/10 00:58:47;;;;;;;17.80;12.35;;;2.90;75.90;;;;;;5075684;28;20029;-79
2022/12/10 01:01:15;;;;;;;18.20;12.40;;;2.80;75.80;;;;;;5074270;28;20040;-79
2022/12/10 01:03:42;;;;;;;21.88;14.27;;;2.80;75.80;;;;;;5074404;28;20035;-80
2022/12/10 01:06:20;;;;;;;19.67;12.93;;;2.90;75.90;;;;;;5057750;28;20476;-79
2022/12/10 01:08:47;;;;;;;18.65;12.50;;;2.80;75.80;;;;;;5073602;28;20056;-82
2022/12/10 01:11:15;;;;;;;19.15;13.27;;;2.80;75.80;;;;;;5057481;28;20036;-79
2022/12/10 01:13:42;;;;;;;19.48;12.70;;;2.80;75.80;;;;;;5057346;28;20040;-80
2022/12/10 01:16:10;;;;;;;20.17;12.70;;;2.80;75.80;;;;;;5057831;28;20020;-80
2022/12/10 01:18:36;;;;;;;20.90;13.32;;;2.80;76.50;;;;;;5057021;28;20450;-79
2022/12/10 01:21:07;;;;;;;18.20;12.02;;;2.80;75.80;;;;;;5057321;28;20041;-79
2022/12/10 01:23:35;;;;;;;19.48;12.73;;;2.80;75.80;;;;;;5075244;28;20108;-79
2022/12/10 01:26:07;;;;;;;19.48;12.95;;;2.80;75.80;;;;;;5057420;28;20031;-78
2022/12/10 01:28:35;;;;;;;19.63;13.23;;;2.80;75.90;;;;;;5057245;28;20492;-79
2022/12/10 01:31:06;;;;;;;19.00;12.73;;;2.70;75.80;;;;;;5058020;28;20037;-78
2022/12/10 01:33:32;;;;;;;20.02;12.50;;;2.80;75.90;;;;;;5057333;28;20033;-79
2022/12/10 01:36:08;;;;;;;20.40;13.57;;;2.70;75.80;;;;;;5074821;28;20032;-79
2022/12/10 01:38:35;;;;;;;19.25;12.23;;;2.70;75.80;;;;;;5057578;28;20507;-78
2022/12/10 01:41:04;;;;;;;19.73;12.18;;;2.70;75.80;;;;;;5056684;28;20162;-80
2022/12/10 01:43:50;;;;;;;18.48;12.35;;;2.70;75.90;;;;;;5057579;28;20028;-79
2022/12/10 01:46:15;;;;;;;18.92;13.32;;;2.70;75.90;;;;;;5056367;28;20035;-80
2022/12/10 01:48:41;;;;;;;20.27;12.95;;;2.70;75.80;;;;;;5056831;28;20048;-79
2022/12/10 01:51:08;;;;;;;18.73;11.55;;;2.70;75.80;;;;;;5056718;28;20039;-79
2022/12/10 01:53:34;;;;;;;19.02;12.38;;;2.70;75.80;;;;;;5072979;28;20041;-80
2022/12/10 01:56:00;;;;;;;20.08;12.85;;;2.60;75.80;;;;;;5056795;28;20457;-79
2022/12/10 01:58:26;;;;;;;19.23;12.40;;;2.60;75.80;;;;;;5074124;28;20047;-79
2022/12/10 02:01:19;;;;;;;19.10;11.63;;;2.60;75.80;;;;;;5039719;28;20033;-79
2022/12/10 02:04:06;;;;;;;19.90;12.18;;;2.60;75.90;;;;;;5049055;28;20511;-80
2022/12/10 02:06:56;;;;;;;18.58;12.23;;;2.60;75.80;;;;;;5056560;28;20134;-80
2022/12/10 02:09:27;;;;;;;19.05;12.65;;;2.60;75.80;;;;;;5074424;28;20059;-79
2022/12/10 02:11:59;;;;;;;18.05;11.75;;;2.50;75.80;;;;;;5073339;28;20123;-79
2022/12/10 02:14:52;;;;;;;18.80;12.30;;;2.50;75.80;;;;;;5075019;28;20081;-78
2022/12/10 02:17:37;;;;;;;18.33;12.48;;;2.50;75.80;;;;;;5073745;28;20056;-79
2022/12/10 02:20:14;;;;;;;18.20;11.70;;;2.50;75.80;;;;;;5056374;28;20055;-79
2022/12/10 02:22:59;;;;;;;18.70;11.90;;;2.50;75.80;;;;;;5073695;28;20401;-80
2022/12/10 02:25:35;;;;;;;20.83;12.45;;;2.50;75.80;;;;;;5073984;28;20056;-79
2022/12/10 02:28:33;;;;;;;19.38;12.18;;;2.50;75.80;;;;;;5056120;28;20111;-79
2022/12/10 02:31:01;;;;;;;18.23;11.80;;;2.50;75.80;;;;;;5056622;28;20028;-81
2022/12/10 02:33:30;;;;;;;19.33;11.63;;;2.40;75.70;;;;;;5039683;28;20021;-79
2022/12/10 02:35:59;;;;;;;18.48;11.85;;;2.40;75.80;;;;;;5056602;28;20086;-80
2022/12/10 02:38:32;;;;;;;17.63;11.90;;;2.40;75.80;;;;;;5055752;28;20119;-80
2022/12/10 02:41:05;;;;;;;20.42;12.90;;;2.40;75.80;;;;;;5072912;28;20437;-79
2022/12/10 02:43:33;;;;;;;17.65;12.07;;;2.40;75.80;;;;;;5056244;28;20024;-79
2022/12/10 02:46:02;;;;;;;18.83;12.52;;;2.40;75.80;;;;;;5073130;28;20079;-79
2022/12/10 02:48:29;;;;;;;18.95;12.50;;;2.40;75.80;;;;;;5073002;28;20109;-79
2022/12/10 02:50:55;;;;;;;19.80;12.98;;;2.40;75.80;;;;;;5055296;28;20459;-79
2022/12/10 02:53:21;;;;;;;19.02;13.20;;;2.40;75.80;;;;;;5055702;28;20056;-79
2022/12/10 02:56:03;;;;;;;18.27;11.98;;;2.40;75.80;;;;;;5073542;28;20104;-79
2022/12/10 02:58:40;;;;;;;18.83;12.90;;;2.40;75.80;;;;;;5056813;28;20385;-79
2022/12/10 03:01:21;;;;;;;18.88;11.88;;;2.40;75.80;;;;;;5072321;28;20029;-78
2022/12/10 03:03:53;;;;;;;19.50;12.40;;;2.30;75.70;;;;;;5056476;28;20052;-79
2022/12/10 03:06:25;;;;;;;19.98;11.90;;;2.30;75.70;;;;;;5055971;28;20064;-79
2022/12/10 03:08:53;;;;;;;20.50;12.70;;;2.30;75.80;;;;;;5072717;28;20059;-79
2022/12/10 03:11:22;;;;;;;17.38;11.90;;;2.30;75.80;;;;;;5039195;28;20583;-79
2022/12/10 03:14:00;;;;;;;18.30;12.68;;;2.30;75.80;;;;;;5055747;28;20044;-78
2022/12/10 03:16:29;;;;;;;21.27;12.95;;;2.30;75.80;;;;;;5055436;28;20472;-79
2022/12/10 03:19:04;;;;;;;19.83;13.02;;;2.30;75.80;;;;;;5055820;28;20460;-79
2022/12/10 03:21:32;;;;;;;18.30;11.52;;;2.30;75.80;;;;;;5073347;28;20446;-81
2022/12/10 03:23:58;;;;;;;18.83;11.82;;;2.20;75.70;;;;;;5055474;28;20512;-79
2022/12/10 03:26:25;;;;;;;19.00;12.30;;;2.20;75.70;;;;;;5056077;28;20044;-79
2022/12/10 03:28:57;;;;;;;18.95;11.70;;;2.20;75.80;;;;;;5055460;28;20059;-79
2022/12/10 03:31:23;;;;;;;20.50;13.45;;;2.20;75.70;;;;;;5072760;28;20259;-79
2022/12/10 03:33:49;;;;;;;19.50;12.80;;;2.20;75.70;;;;;;5072177;28;20025;-79
2022/12/10 03:36:18;;;;;;;19.33;12.80;;;2.20;75.70;;;;;;5073010;28;20040;-80
2022/12/10 03:38:44;;;;;;;17.95;12.55;;;2.20;75.70;;;;;;5054909;28;20027;-80
2022/12/10 03:41:10;;;;;;;18.80;12.25;;;2.20;75.70;;;;;;5038946;28;20036;-79
2022/12/10 03:43:35;;;;;;;19.60;11.73;;;2.10;76.30;;;;;;5055727;28;20035;-79
2022/12/10 03:46:01;;;;;;;19.48;13.02;;;2.20;75.70;;;;;;5073409;28;20021;-79
2022/12/10 03:48:27;;;;;;;21.05;13.00;;;2.10;75.70;;;;;;5039130;28;20040;-79
2022/12/10 03:50:53;;;;;;;19.85;12.88;;;2.10;75.70;;;;;;5073108;28;20025;-79
2022/12/10 03:53:18;;;;;;;19.30;13.48;;;2.10;75.70;;;;;;5054930;28;20068;-80
2022/12/10 03:55:44;;;;;;;18.58;12.77;;;2.10;75.70;;;;;;5073175;28;20039;-79
2022/12/10 03:58:10;;;;;;;21.17;13.18;;;2.10;75.60;;;;;;5071895;28;20044;-79
2022/12/10 04:00:36;;;;;;;20.33;12.65;;;2.10;75.60;;;;;;5072098;28;20036;-79
2022/12/10 04:03:01;;;;;;;20.33;13.27;;;2.10;75.60;;;;;;5056481;28;20385;-79
2022/12/10 04:05:27;;;;;;;19.40;12.18;;;2.10;75.70;;;;;;5058832;28;20053;-78
2022/12/10 04:07:53;;;;;;;19.77;12.85;;;2.10;75.70;;;;;;5058791;28;20052;-80
2022/12/10 04:10:18;;;;;;;19.98;12.77;;;2.10;75.70;;;;;;5059407;28;20047;-80
2022/12/10 04:16:26;;;;;;;20.00;12.80;;;2.00;75.60;;;;;;5059147;28;20537;-79
2022/12/10 04:18:14;;;;;;;19.77;13.02;;;2.00;75.60;;;;;;5077306;28;20032;-79
2022/12/10 04:28:52;;;;;;;18.45;13.02;;;2.00;75.60;;;;;;5075023;28;20041;-79
2022/12/10 04:31:18;;;;;;;19.25;13.23;;;1.90;75.60;;;;;;5058395;28;20032;-81
2022/12/10 04:33:43;;;;;;;18.98;12.40;;;2.00;75.70;;;;;;5057860;28;20070;-80
2022/12/10 04:36:09;;;;;;;20.70;13.15;;;1.90;75.60;;;;;;5058750;28;20068;-79
2022/12/10 04:38:35;;;;;;;21.48;13.90;;;2.00;75.60;;;;;;5074682;28;20075;-79
2022/12/10 04:41:01;;;;;;;20.60;13.18;;;2.00;75.60;;;;;;5074794;28;20032;-78
2022/12/10 04:43:27;;;;;;;21.48;13.32;;;2.00;75.60;;;;;;5075107;28;20039;-78
2022/12/10 04:45:56;;;;;;;22.20;14.07;;;2.00;75.60;;;;;;5074815;28;20052;-79
2022/12/10 04:48:21;;;;;;;20.10;13.98;;;2.00;75.60;;;;;;5057824;28;20035;-79
2022/12/10 04:50:47;;;;;;;20.13;13.38;;;1.90;75.50;;;;;;5057901;28;20127;-79
2022/12/10 04:53:12;;;;;;;20.85;13.23;;;2.00;75.60;;;;;;5074871;28;20450;-80
2022/12/10 04:55:38;;;;;;;22.35;14.95;;;1.90;75.60;;;;;;5075494;28;20028;-79
2022/12/10 04:58:04;;;;;;;20.83;13.43;;;2.00;75.60;;;;;;5057844;28;20070;-80
2022/12/10 05:00:29;;;;;;;19.83;13.00;;;2.00;75.60;;;;;;5041051;28;20029;-79
2022/12/10 05:02:55;;;;;;;22.60;13.98;;;2.00;75.60;;;;;;5057810;28;20032;-79
2022/12/10 05:05:21;;;;;;;21.63;13.85;;;2.00;75.60;;;;;;5075549;28;20046;-81
2022/12/10 05:07:47;;;;;;;20.65;13.82;;;2.00;75.60;;;;;;5074226;28;20374;-78
2022/12/10 05:10:12;;;;;;;21.13;13.45;;;2.00;75.50;;;;;;5058229;28;20458;-78
2022/12/10 05:12:38;;;;;;;21.20;13.85;;;2.00;75.50;;;;;;5074195;28;20039;-79
2022/12/10 05:15:04;;;;;;;22.33;13.95;;;2.00;75.50;;;;;;5073804;28;20048;-80
2022/12/10 05:17:30;;;;;;;18.25;12.60;;;2.00;75.50;;;;;;5074028;28;20115;-80
2022/12/10 05:19:56;;;;;;;20.23;13.10;;;2.00;75.50;;;;;;5057377;28;20064;-79
2022/12/10 05:25:06;;;;;;;21.05;13.23;;;2.00;75.50;;;;;;5057852;28;20106;-80
2022/12/10 05:27:33;;;;;;;23.67;14.57;;;2.10;75.50;;;;;;5041371;28;20116;-79
2022/12/10 05:29:59;;;;;;;22.15;13.70;;;2.00;75.50;;;;;;5057425;28;20082;-80
2022/12/10 05:32:25;;;;;;;22.45;15.48;;;2.00;75.50;;;;;;5057429;28;20029;-80
2022/12/10 05:34:50;;;;;;;22.58;14.60;;;2.10;75.60;;;;;;5057369;28;20033;-79
2022/12/10 05:37:16;;;;;;;24.05;14.32;;;2.10;75.50;;;;;;5041426;28;20360;-80
2022/12/10 05:39:42;;;;;;;23.15;14.60;;;2.10;75.60;;;;;;5057050;28;20033;-79
2022/12/10 05:42:07;;;;;;;23.80;14.13;;;2.10;75.50;;;;;;5073870;28;20090;-79
2022/12/10 05:44:33;;;;;;;22.80;13.73;;;2.10;75.50;;;;;;5074631;28;20055;-79
2022/12/10 05:46:59;;;;;;;20.67;13.85;;;2.10;75.50;;;;;;5075216;28;20055;-78
2022/12/10 05:49:25;;;;;;;26.13;15.35;;;2.10;75.60;;;;;;5074655;28;20043;-78
2022/12/10 05:51:50;;;;;;;24.13;14.95;;;2.10;75.60;;;;;;5040861;28;20385;-79
2022/12/10 05:54:16;;;;;;;25.05;14.35;;;2.10;75.60;;;;;;5040839;28;20029;-78
2022/12/10 05:56:42;;;;;;;22.95;13.95;;;2.10;75.50;;;;;;5074488;28;20039;-79
2022/12/10 05:59:07;;;;;;;23.67;15.38;;;2.10;75.60;;;;;;5073346;28;20149;-81
2022/12/10 06:01:34;;;;;;;27.30;15.90;;;2.10;75.50;;;;;;5074409;28;20024;-78
2022/12/10 06:04:03;;;;;;;24.25;14.90;;;2.20;75.60;;;;;;5074252;28;20024;-80
2022/12/10 06:06:31;;;;;;;24.83;14.85;;;2.20;75.60;;;;;;5056455;28;20145;-78
2022/12/10 06:08:58;;;;;;;24.08;15.02;;;2.20;75.60;;;;;;5074483;28;20059;-80
2022/12/10 06:11:26;;;;;;;26.88;15.55;;;2.20;75.60;;;;;;5074042;28;20032;-80
2022/12/10 06:13:53;;;;;;;23.80;14.68;;;2.20;75.60;;;;;;5074297;28;20112;-80
2022/12/10 06:16:18;;;;;;;24.70;14.73;;;2.20;75.60;;;;;;5072751;28;20055;-79
2022/12/10 06:18:44;;;;;;;25.15;15.50;;;2.20;75.60;;;;;;5073422;28;20483;-80
2022/12/10 06:21:13;;;;;;;24.52;14.95;;;2.20;75.60;;;;;;5039766;28;20029;-80
2022/12/10 06:23:40;;;;;;;23.85;14.38;;;2.20;75.60;;;;;;5056136;28;20028;-79
2022/12/10 06:26:14;;;;;;;24.02;14.45;;;2.20;75.60;;;;;;5055351;28;20122;-80
2022/12/10 06:28:40;;;;;;;24.33;14.60;;;2.30;75.60;;;;;;5056351;28;20040;-79
2022/12/10 06:31:07;;;;;;;24.30;13.85;;;2.30;75.60;;;;;;5073697;28;20066;-80
2022/12/10 06:33:33;;;;;;;23.55;14.45;;;2.30;75.70;;;;;;5072966;28;20033;-79
2022/12/10 06:35:59;;;;;;;23.88;14.07;;;2.30;75.60;;;;;;5056872;28;20488;-79
2022/12/10 06:38:25;;;;;;;24.70;14.82;;;2.30;75.70;;;;;;5073962;28;20048;-79
2022/12/10 06:40:51;;;;;;;23.08;13.95;;;2.30;75.60;;;;;;5039358;28;20020;-79
2022/12/10 06:43:16;;;;;;;25.20;14.93;;;2.30;75.60;;;;;;5072517;28;20060;-80
2022/12/10 06:45:43;;;;;;;23.92;13.35;;;2.30;75.90;;;;;;5072373;28;20466;-79
2022/12/10 06:48:09;;;;;;;24.63;14.60;;;2.30;75.70;;;;;;5073598;28;20036;-79
2022/12/10 06:50:35;;;;;;;23.38;14.52;;;2.30;75.70;;;;;;5073392;28;20059;-79
2022/12/10 06:53:02;;;;;;;23.90;14.20;;;2.30;76.30;;;;;;5056007;28;20034;-78
2022/12/10 06:55:28;;;;;;;26.45;15.60;;;2.30;75.70;;;;;;5055840;28;20544;-79
2022/12/10 06:57:54;;;;;;;25.77;14.40;;;2.30;75.70;;;;;;5072715;28;20064;-78
2022/12/10 07:00:21;;;;;;;24.23;13.93;;;2.30;75.70;;;;;;5072368;28;20028;-79
2022/12/10 07:02:48;;;;;;;25.98;14.73;;;2.30;75.70;;;;;;5073476;28;20030;-80
2022/12/10 07:05:14;;;;;;;24.13;14.38;;;2.30;75.70;;;;;;5072352;28;20054;-79
2022/12/10 07:07:40;;;;;;;23.70;13.98;;;2.30;75.70;;;;;;5072043;28;20470;-81
2022/12/10 07:10:06;;;;;;;24.92;14.88;;;2.40;75.80;;;;;;5055677;28;20036;-79
2022/12/10 07:12:32;;;;;;;26.52;15.60;;;2.40;75.80;;;;;;5072470;28;20037;-79
2022/12/10 07:14:58;;;;;;;24.92;14.55;;;2.40;75.80;;;;;;5039135;28;20044;-79
2022/12/10 07:17:23;;;;;;;28.60;14.75;;;2.30;75.80;;;;;;5038903;28;20099;-80
2022/12/10 07:19:49;;;;;;;23.55;14.60;;;2.40;75.80;;;;;;5055401;28;20475;-79
2022/12/10 07:22:15;;;;;;;23.27;14.60;;;2.40;75.80;;;;;;5071863;28;20123;-79
2022/12/10 07:24:41;;;;;;;27.15;15.00;;;2.40;75.80;;;;;;5055001;28;20032;-78
2022/12/10 07:27:07;;;;;;;26.33;14.45;;;2.40;75.80;;;;;;5071739;28;20397;-79
2022/12/10 07:29:33;;;;;;;23.27;13.90;;;2.40;75.80;;;;;;5054757;28;20075;-80
2022/12/10 07:31:59;;;;;;;26.25;14.80;;;2.40;75.80;;;;;;5039454;28;20052;-78
2022/12/10 07:34:24;;;;;;;26.17;15.70;;;2.40;75.80;;;;;;5072916;28;20067;-80
2022/12/10 07:36:50;;;;;;;25.30;15.07;;;2.40;75.80;;;;;;5056120;28;20035;-79
2022/12/10 07:39:19;;;;;;;26.17;13.98;;;2.40;75.80;;;;;;5076047;28;20047;-79
2022/12/10 07:41:52;;;;;;;23.60;14.55;;;2.40;75.80;;;;;;5076005;28;20033;-80
2022/12/10 07:44:23;;;;;;;24.42;14.82;;;2.40;75.80;;;;;;5077041;28;20082;-77
2022/12/10 07:46:50;;;;;;;25.48;14.88;;;2.40;75.80;;;;;;5075903;28;20020;-79
2022/12/10 07:49:16;;;;;;;26.65;15.43;;;2.50;75.90;;;;;;5059199;28;20032;-78
2022/12/10 07:51:46;;;;;;;24.75;14.23;;;2.40;76.40;;;;;;5058562;28;20024;-81
2022/12/10 07:54:12;;;;;;;26.05;14.60;;;2.50;75.90;;;;;;5076309;28;20028;-79
2022/12/10 07:56:38;;;;;;;24.95;13.90;;;2.40;75.80;;;;;;5059522;28;20032;-79
2022/12/10 07:59:03;;;;;;;22.90;14.20;;;2.50;75.90;;;;;;5077158;28;20044;-79
2022/12/10 08:01:29;;;;;;;22.80;13.35;;;2.40;75.80;;;;;;5058692;28;20037;-79
2022/12/10 08:03:56;;;;;;;26.60;14.27;;;2.40;76.50;;;;;;5058861;28;20041;-80
2022/12/10 08:06:24;;;;;;;23.58;13.63;;;2.50;75.90;;;;;;5059084;28;20071;-80
2022/12/10 08:08:50;;;;;;;23.10;12.95;;;2.40;75.80;;;;;;5058123;28;20109;-79
2022/12/10 08:11:18;;;;;;;23.70;13.98;;;2.50;75.90;;;;;;5076856;28;20063;-80
2022/12/10 08:13:44;;;;;;;22.90;13.75;;;2.50;75.90;;;;;;5076734;28;20441;-79
2022/12/10 08:16:15;;;;;;;25.75;14.90;;;2.50;75.90;;;;;;5059193;28;20064;-79
2022/12/10 08:18:42;;;;;;;23.50;13.32;;;2.50;75.90;;;;;;5076752;28;20032;-78
2022/12/10 08:21:14;;;;;;;24.98;13.45;;;2.50;75.90;;;;;;5076597;28;20029;-81
2022/12/10 08:23:41;;;;;;;24.00;13.90;;;2.50;75.90;;;;;;5059100;28;20027;-81
2022/12/10 08:26:14;;;;;;;23.63;14.00;;;2.50;75.90;;;;;;5076506;28;20055;-83
2022/12/10 08:28:40;;;;;;;22.92;13.00;;;2.50;75.90;;;;;;5075930;28;20059;-78
2022/12/10 08:31:09;;;;;;;21.80;12.57;;;2.50;75.90;;;;;;5075719;28;20446;-79
2022/12/10 08:33:37;;;;;;;25.50;14.68;;;2.50;75.90;;;;;;5076764;28;20117;-79
2022/12/10 08:36:04;;;;;;;22.67;13.65;;;2.50;75.90;;;;;;5076383;28;20047;-79
2022/12/10 08:38:30;;;;;;;22.05;12.73;;;2.50;75.90;;;;;;5074672;28;20098;-78
2022/12/10 08:40:57;;;;;;;24.00;12.23;;;2.50;75.90;;;;;;5058348;28;20529;-79
2022/12/10 08:43:23;;;;;;;24.17;13.60;;;2.50;75.90;;;;;;5074674;28;20025;-78
2022/12/10 08:45:48;;;;;;;25.30;13.65;;;2.50;75.90;;;;;;5075200;28;20036;-79
2022/12/10 08:48:14;;;;;;;25.25;13.57;;;2.50;76.50;;;;;;5073849;28;20064;-79
2022/12/10 08:50:40;;;;;;;23.80;13.52;;;2.50;75.90;;;;;;5058044;28;20064;-78
2022/12/10 08:53:06;;;;;;;23.40;13.05;;;2.60;76.00;;;;;;5074988;28;20025;-80
2022/12/10 08:55:31;;;;;;;21.40;13.00;;;2.50;75.90;;;;;;5058064;28;20044;-78
2022/12/10 08:57:58;;;;;;;22.23;13.13;;;2.60;76.00;;;;;;5075453;28;20029;-78
2022/12/10 09:00:25;;;;;;;23.38;13.80;;;2.60;76.00;;;;;;5058031;28;20131;-78
2022/12/10 09:02:51;;;;;;;21.33;12.50;;;2.60;75.90;;;;;;5074408;28;20400;-78
2022/12/10 09:05:16;;;;;;;24.30;12.82;;;2.60;76.00;;;;;;5057344;28;20029;-78
2022/12/10 09:07:42;;;;;;;21.20;12.30;;;2.60;75.90;;;;;;5053908;28;20049;-78
2022/12/10 09:10:11;;;;;;;24.73;13.65;;;2.60;75.90;;;;;;5055951;28;20029;-80
2022/12/10 09:12:38;;;;;;;23.35;13.30;;;2.60;76.00;;;;;;5054280;28;20034;-78
2022/12/10 09:15:05;;;;;;;21.67;13.02;;;2.60;75.90;;;;;;5055114;28;20463;-78
2022/12/10 09:17:31;;;;;;;24.13;13.93;;;2.60;76.00;;;;;;5070706;28;20031;-77
2022/12/10 09:19:57;;;;;;;23.80;13.13;;;2.60;75.90;;;;;;5037833;28;20037;-78
2022/12/10 09:22:22;;;;;;;23.95;13.70;;;2.60;75.90;;;;;;5055499;28;20527;-79
2022/12/10 09:24:48;;;;;;;21.40;12.40;;;2.60;75.90;;;;;;5054189;28;20033;-79
2022/12/10 09:27:14;;;;;;;22.63;13.38;;;2.60;75.90;;;;;;5053727;28;20067;-79
2022/12/10 09:29:40;;;;;;;22.98;13.77;;;2.60;76.00;;;;;;5037069;28;20120;-80
2022/12/10 09:32:05;;;;;;;24.10;14.45;;;2.60;76.60;;;;;;5054329;28;20086;-80
2022/12/10 09:34:31;;;;;;;20.67;12.18;;;2.60;76.00;;;;;;5055016;28;20053;-77
2022/12/10 09:36:57;;;;;;;21.50;12.38;;;2.60;76.00;;;;;;5037115;28;20052;-78
2022/12/10 09:39:22;;;;;;;21.35;12.38;;;2.70;76.00;;;;;;5053431;28;20040;-79
2022/12/10 09:42:12;;;;;;;22.30;12.57;;;2.70;76.00;;;;;;5054749;28;20025;-79
2022/12/10 09:45:00;;;;;;;20.95;12.43;;;2.70;76.10;;;;;;5055346;28;20040;-77
2022/12/10 09:47:35;;;;;;;23.50;12.52;;;2.70;76.00;;;;;;5054930;28;20462;-78
2022/12/10 09:50:16;;;;;;;21.20;12.02;;;2.70;76.00;;;;;;5054357;28;20032;-78
2022/12/10 09:52:45;;;;;;;22.83;12.10;;;2.70;76.00;;;;;;5069871;28;20033;-79
2022/12/10 09:55:17;;;;;;;19.58;11.45;;;2.70;76.00;;;;;;5054534;28;20053;-78
2022/12/10 09:57:47;;;;;;;20.15;12.15;;;2.70;76.00;;;;;;5036562;28;20032;-78
2022/12/10 10:00:21;;;;;;;22.98;13.02;;;2.70;76.00;;;;;;5053290;28;20108;-80
2022/12/10 10:02:49;;;;;;;23.55;12.65;;;2.70;76.00;;;;;;5054220;28;20029;-79
2022/12/10 10:05:24;;;;;;;22.65;12.63;;;2.70;76.00;;;;;;5053108;28;20100;-80
2022/12/10 10:07:56;;;;;;;23.40;13.40;;;2.70;76.00;;;;;;5069457;28;20204;-79
2022/12/10 10:10:24;;;;;;;25.58;13.27;;;2.80;76.10;;;;;;5070045;28;20028;-78
2022/12/10 10:12:56;;;;;;;21.92;13.23;;;2.80;76.00;;;;;;5053077;28;20025;-78
2022/12/10 10:15:28;;;;;;;22.10;12.43;;;2.80;76.10;;;;;;5036469;28;20021;-77
2022/12/10 10:17:58;;;;;;;20.95;11.52;;;2.80;76.10;;;;;;5037161;28;20037;-76
2022/12/10 10:20:23;;;;;;;21.88;12.50;;;2.80;76.10;;;;;;5036364;28;20418;-78
2022/12/10 10:22:50;;;;;;;20.73;11.48;;;2.80;76.10;;;;;;5053657;28;20032;-78
2022/12/10 10:25:17;;;;;;;22.88;12.00;;;2.80;76.10;;;;;;5053168;28;20040;-78
2022/12/10 10:27:43;;;;;;;22.45;12.25;;;2.80;76.10;;;;;;5036070;28;20052;-78
2022/12/10 10:30:19;;;;;;;22.35;12.30;;;2.80;76.10;;;;;;5019807;28;20061;-78
2022/12/10 10:32:54;;;;;;;23.63;12.43;;;2.80;76.10;;;;;;5053573;28;20025;-79
2022/12/10 10:35:40;;;;;;;;;;;2.90;76.10;;;;;;5036493;28;20056;-78
2022/12/10 10:38:13;;;;;;;19.80;10.93;;;2.80;76.00;;;;;;5053090;28;19955;-79
2022/12/10 10:40:44;;;;;;;21.73;11.95;;;2.90;76.00;;;;;;5052466;28;20040;-78
2022/12/10 10:43:20;;;;;;;21.27;12.20;;;2.90;76.00;;;;;;5053753;28;20469;-78
2022/12/10 10:45:56;;;;;;;23.63;12.32;;;2.90;76.10;;;;;;5053135;28;20029;-79
2022/12/10 10:48:24;;;;;;;22.20;11.70;;;2.90;76.10;;;;;;5052638;28;20037;-79
2022/12/10 10:50:53;;;;;;;22.17;12.73;;;2.90;76.10;;;;;;5035886;28;20025;-79
2022/12/10 10:53:39;;;;;;;21.40;12.27;;;2.90;76.10;;;;;;5053701;28;20514;-78
2022/12/10 10:56:16;;;;;;;20.42;11.38;;;2.90;76.10;;;;;;5035595;28;20078;-79
2022/12/10 10:59:20;;;;;;;20.10;11.35;;;3.00;76.20;;;;;;5069362;28;20040;-79
2022/12/10 11:01:48;;;;;;;19.83;11.68;;;2.90;76.10;;;;;;5048272;28;20045;-80
2022/12/10 11:04:16;;;;;;;22.40;12.68;;;2.90;76.10;;;;;;5052649;28;20124;-76
2022/12/10 11:06:43;;;;;;;20.85;11.68;;;2.90;76.10;;;;;;5035962;28;20549;-78
2022/12/10 11:09:21;;;;;;;20.38;11.25;;;2.90;76.10;;;;;;5032202;28;20041;-78
2022/12/10 11:11:57;;;;;;;22.15;11.52;;;3.00;76.20;;;;;;5048563;28;20091;-79
2022/12/10 11:14:25;;;;;;;20.50;11.60;;;3.00;76.20;;;;;;5049318;28;20031;-78
2022/12/10 11:17:17;;;;;;;20.83;11.45;;;3.00;76.10;;;;;;5048947;28;20026;-77
2022/12/10 11:19:54;;;;;;;24.08;13.20;;;3.00;76.20;;;;;;5032429;28;20061;-78
2022/12/10 11:22:23;;;;;;;20.27;11.70;;;3.00;76.20;;;;;;5033684;28;20021;-80
2022/12/10 11:24:49;;;;;;;18.75;11.20;;;3.00;76.10;;;;;;5032364;28;20022;-79
2022/12/10 11:27:38;;;;;;;20.15;11.05;;;3.00;76.10;;;;;;5032361;28;20034;-80
2022/12/10 11:30:04;;;;;;;20.77;11.77;;;3.10;76.20;;;;;;5016087;28;20041;-79
2022/12/10 11:33:07;;;;;;;19.30;10.80;;;3.00;76.10;;;;;;5048978;28;20026;-79
2022/12/10 11:36:02;;;;;;;18.77;10.73;;;3.10;76.30;;;;;;5048901;28;20029;-81
2022/12/10 11:38:45;;;;;;;21.30;11.30;;;3.00;76.10;;;;;;5016208;28;20037;-80
2022/12/10 11:41:42;;;;;;;18.10;10.48;;;3.10;76.10;;;;;;5049698;28;20048;-80
2022/12/10 11:44:23;;;;;;;19.00;10.77;;;3.10;76.20;;;;;;5049172;28;20497;-81
2022/12/10 11:47:18;;;;;;;20.52;10.98;;;3.10;76.10;;;;;;5048742;28;20036;-81
2022/12/10 11:49:52;;;;;;;20.20;12.23;;;3.10;76.30;;;;;;5048785;28;20041;-79
2022/12/10 11:52:38;;;;;;;21.40;11.45;;;3.10;76.10;;;;;;5049401;28;20083;-78
2022/12/10 11:55:22;;;;;;;19.67;11.10;;;3.10;76.20;;;;;;5033307;28;20077;-78
2022/12/10 11:58:06;;;;;;;18.23;10.43;;;3.20;76.30;;;;;;5048050;28;20060;-79
2022/12/10 12:01:01;;;;;;;17.65;10.50;;;3.20;76.30;;;;;;5048705;28;20085;-80
2022/12/10 12:03:45;;;;;;;17.98;10.30;;;3.20;76.20;;;;;;5048958;28;20037;-80
2022/12/10 12:06:28;;;;;;;19.73;10.83;;;3.20;76.20;;;;;;5048704;28;20043;-78
2022/12/10 12:09:26;;;;;;;18.85;10.57;;;3.20;76.10;;;;;;5061247;28;20326;-81
2022/12/10 12:12:38;;;;;;;19.98;11.40;;;3.20;76.20;;;;;;5039053;28;20035;-78
2022/12/10 12:15:39;;;;;;;16.25;9.27;;;3.20;76.20;;;;;;5047409;28;20040;-78
2022/12/10 12:18:28;;;;;;;19.23;10.90;;;3.20;76.20;;;;;;5072518;28;20025;-78
2022/12/10 12:21:04;;;;;;;19.25;10.43;;;3.20;76.20;;;;;;5072946;28;20029;-78
2022/12/10 12:24:07;;;;;;;23.88;11.35;;;3.30;76.30;;;;;;5071702;28;20029;-79
2022/12/10 12:26:42;;;;;;;21.75;11.30;;;3.30;76.40;;;;;;5042836;28;20024;-81
2022/12/10 12:29:10;;;;;;;;;;;3.30;76.30;;;;;;5059131;28;20032;-80
2022/12/10 12:31:40;;;;;;;18.33;10.13;;;3.20;76.10;;;;;;5058699;28;19978;-79
2022/12/10 12:34:32;;;;;;;18.08;9.93;;;3.30;76.20;;;;;;5058003;28;20024;-80
2022/12/10 12:36:58;;;;;;;19.98;10.45;;;3.30;76.20;;;;;;5058938;28;20025;-79
2022/12/10 12:39:45;;;;;;;19.75;10.82;;;3.30;76.10;;;;;;5042041;28;20090;-79
2022/12/10 12:42:40;;;;;;;20.08;10.73;;;3.30;76.30;;;;;;5058426;28;20083;-80
2022/12/10 12:45:16;;;;;;;21.17;10.27;;;3.30;76.30;;;;;;5076174;28;20029;-79
2022/12/10 12:47:47;;;;;;;20.75;10.40;;;3.30;76.30;;;;;;5075842;28;20024;-79
2022/12/10 12:50:34;;;;;;;21.17;11.27;;;3.30;76.30;;;;;;5058392;28;20118;-79
2022/12/10 12:53:01;;;;;;;20.73;10.38;;;3.30;76.40;;;;;;5058216;28;20154;-77
2022/12/10 12:55:36;;;;;;;20.23;10.85;;;3.40;76.40;;;;;;5074615;28;20051;-79
2022/12/10 12:58:22;;;;;;;21.27;11.25;;;3.40;76.40;;;;;;5074585;28;20032;-79
2022/12/10 13:00:51;;;;;;;20.08;10.50;;;3.40;76.40;;;;;;5057710;28;20087;-80
2022/12/10 13:03:39;;;;;;;22.80;12.32;;;3.40;76.40;;;;;;5058420;28;20234;-79
2022/12/10 13:06:14;;;;;;;22.35;11.75;;;3.40;76.50;;;;;;5057659;28;20024;-79
2022/12/10 13:09:17;;;;;;;17.83;10.93;;;3.40;76.40;;;;;;5074173;28;20048;-80
2022/12/10 13:12:04;;;;;;;20.27;11.27;;;3.50;76.50;;;;;;5075849;28;20031;-79